createdAt,value
2023-03-19T00:02:49.896Z,2.60
2023-03-19T00:05:54.063Z,2.93
2023-03-19T00:08:56.883Z,2.13
2023-03-19T00:12:01.061Z,2.60
2023-03-19T00:15:03.956Z,2.90
2023-03-19T00:18:07.680Z,2.60
2023-03-19T00:21:10.805Z,2.70
2023-03-19T00:24:14.072Z,2.60
2023-03-19T00:27:18.805Z,2.13
2023-03-19T00:30:22.732Z,2.90
2023-03-19T00:33:26.534Z,2.78
2023-03-19T00:36:30.372Z,2.72
2023-03-19T00:39:33.660Z,3.03
2023-03-19T00:42:37.840Z,3.13
2023-03-19T00:45:41.451Z,2.73
2023-03-19T00:48:44.444Z,3.00
2023-03-19T00:51:47.830Z,2.40
2023-03-19T00:54:51.063Z,2.73
2023-03-19T00:57:56.050Z,2.63
2023-03-19T01:00:58.952Z,3.00
2023-03-19T01:04:01.811Z,2.90
2023-03-19T01:07:04.918Z,3.20
2023-03-19T01:10:08.633Z,3.20
2023-03-19T01:13:13.308Z,3.30
2023-03-19T01:16:16.379Z,2.93
2023-03-19T01:19:20.156Z,3.13
2023-03-19T01:22:22.986Z,2.90
2023-03-19T01:25:25.787Z,2.97
2023-03-19T01:28:30.060Z,2.70
2023-03-19T01:31:33.003Z,3.05
2023-03-19T01:34:36.740Z,3.30
2023-03-19T01:37:39.500Z,2.90
2023-03-19T01:40:46.032Z,3.50
2023-03-19T01:43:50.870Z,2.80
2023-03-19T01:46:54.128Z,3.07
2023-03-19T01:49:58.345Z,3.67
2023-03-19T01:53:01.956Z,3.10
2023-03-19T01:56:09.805Z,3.55
2023-03-19T01:59:18.457Z,2.87
2023-03-19T02:02:26.241Z,2.35
2023-03-19T02:05:29.790Z,2.28
2023-03-19T02:08:35.016Z,2.47
2023-03-19T02:11:39.001Z,2.15
2023-03-19T02:14:43.400Z,1.70
2023-03-19T02:17:47.576Z,1.93
2023-03-19T02:20:56.672Z,2.58
2023-03-19T02:24:08.441Z,2.28
2023-03-19T02:27:13.129Z,1.98
2023-03-19T02:30:22.215Z,1.70
2023-03-19T02:33:25.089Z,2.00
2023-03-19T02:36:32.911Z,1.90
2023-03-19T02:39:41.242Z,2.25
2023-03-19T02:42:45.574Z,1.73
2023-03-19T02:45:48.825Z,1.90
2023-03-19T02:48:52.649Z,1.57
2023-03-19T02:51:55.488Z,1.70
2023-03-19T02:54:58.293Z,1.80
2023-03-19T02:58:02.495Z,1.58
2023-03-19T03:01:06.394Z,1.35
2023-03-19T03:04:09.647Z,1.88
2023-03-19T03:07:12.977Z,1.55
2023-03-19T03:10:15.801Z,1.70
2023-03-19T03:13:20.016Z,1.75
2023-03-19T03:16:23.013Z,1.63
2023-03-19T03:19:25.927Z,1.58
2023-03-19T03:22:28.995Z,1.40
2023-03-19T03:25:31.749Z,1.50
2023-03-19T03:28:35.850Z,1.42
2023-03-19T03:31:38.763Z,1.40
2023-03-19T03:34:42.100Z,1.10
2023-03-19T03:37:44.866Z,1.10
2023-03-19T03:40:51.588Z,1.17
2023-03-19T03:43:56.368Z,1.25
2023-03-19T03:46:59.280Z,1.00
2023-03-19T03:50:01.990Z,1.60
2023-03-19T03:53:04.973Z,1.67
2023-03-19T03:56:08.570Z,1.40
2023-03-19T03:59:12.934Z,1.50
2023-03-19T04:02:15.932Z,1.83
2023-03-19T04:05:19.170Z,1.50
2023-03-19T04:08:22.605Z,1.50
2023-03-19T04:11:25.895Z,1.20
2023-03-19T04:14:30.407Z,1.17
2023-03-19T04:17:33.310Z,1.23
2023-03-19T04:20:36.683Z,1.03
2023-03-19T04:23:39.516Z,1.30
2023-03-19T04:26:42.463Z,1.30
2023-03-19T04:29:46.670Z,1.20
2023-03-19T04:32:49.458Z,1.27
2023-03-19T04:35:52.324Z,1.37
2023-03-19T04:38:55.179Z,1.50
2023-03-19T04:41:58.082Z,1.37
2023-03-19T04:45:02.400Z,1.33
2023-03-19T04:48:05.712Z,1.83
2023-03-19T04:51:09.631Z,1.88
2023-03-19T04:54:12.523Z,1.85
2023-03-19T04:57:15.234Z,1.70
2023-03-19T05:00:20.521Z,1.87
2023-03-19T05:03:23.440Z,1.30
2023-03-19T05:06:27.164Z,1.50
2023-03-19T05:09:30.891Z,1.40
2023-03-19T05:12:33.824Z,1.70
2023-03-19T05:15:38.879Z,2.10
2023-03-19T05:18:43.007Z,1.50
2023-03-19T05:21:45.792Z,1.67
2023-03-19T05:24:48.601Z,1.35
2023-03-19T05:27:51.749Z,1.90
2023-03-19T05:30:56.035Z,1.77
2023-03-19T05:33:58.774Z,1.90
2023-03-19T05:37:01.458Z,1.50
2023-03-19T05:40:04.537Z,1.73
2023-03-19T05:43:07.631Z,1.65
2023-03-19T05:46:11.817Z,1.58
2023-03-19T05:49:14.867Z,1.80
2023-03-19T05:52:17.656Z,1.50
2023-03-19T05:55:20.733Z,1.83
2023-03-19T05:58:23.833Z,2.20
2023-03-19T06:01:28.315Z,2.37
2023-03-19T06:04:31.223Z,1.57
2023-03-19T06:07:34.226Z,2.33
2023-03-19T06:10:37.229Z,2.20
2023-03-19T06:13:40.462Z,2.00
2023-03-19T06:16:44.652Z,2.10
2023-03-19T06:19:47.414Z,1.75
2023-03-19T06:22:50.368Z,2.10
2023-03-19T06:25:53.163Z,2.45
2023-03-19T06:28:55.883Z,1.50
2023-03-19T06:32:00.683Z,1.65
2023-03-19T06:35:03.703Z,1.65
2023-03-19T06:38:07.400Z,1.80
2023-03-19T06:41:10.208Z,1.48
2023-03-19T06:44:12.962Z,1.65
2023-03-19T06:47:17.163Z,1.70
2023-03-19T06:50:20.119Z,1.90
2023-03-19T06:53:22.894Z,2.00
2023-03-19T06:56:26.138Z,1.60
2023-03-19T06:59:28.995Z,1.67
2023-03-19T07:02:33.095Z,1.65
2023-03-19T07:05:35.944Z,1.38
2023-03-19T07:08:38.918Z,1.92
2023-03-19T07:11:42.053Z,2.33
2023-03-19T07:14:44.706Z,1.95
2023-03-19T07:17:49.824Z,1.40
2023-03-19T07:20:52.979Z,1.75
2023-03-19T07:23:55.679Z,1.75
2023-03-19T07:26:58.819Z,1.38
2023-03-19T07:30:01.679Z,1.55
2023-03-19T07:33:07.229Z,1.38
2023-03-19T07:36:11.277Z,1.33
2023-03-19T07:39:14.450Z,1.27
2023-03-19T07:42:17.589Z,1.30
2023-03-19T07:45:20.670Z,1.30
2023-03-19T07:48:24.725Z,1.10
2023-03-19T07:51:27.538Z,1.10
2023-03-19T07:54:31.328Z,1.30
2023-03-19T07:57:34.024Z,1.20
2023-03-19T08:00:37.033Z,1.00
2023-03-19T08:03:41.666Z,1.08
2023-03-19T08:06:44.593Z,1.15
2023-03-19T08:09:47.514Z,1.13
2023-03-19T08:12:50.546Z,1.10
2023-03-19T08:15:53.673Z,1.30
2023-03-19T08:18:57.920Z,1.40
2023-03-19T08:22:00.823Z,1.10
2023-03-19T08:25:03.878Z,0.90
2023-03-19T08:28:09.775Z,1.30
2023-03-19T08:31:14.460Z,1.27
2023-03-19T08:34:18.840Z,1.20
2023-03-19T08:37:21.849Z,1.13
2023-03-19T08:40:25.313Z,0.85
2023-03-19T08:43:28.100Z,1.38
2023-03-19T08:46:31.276Z,1.10
2023-03-19T08:49:35.628Z,1.00
2023-03-19T08:52:40.339Z,1.10
2023-03-19T08:55:44.091Z,1.35
2023-03-19T08:58:46.977Z,1.05
2023-03-19T09:01:52.619Z,1.10
2023-03-19T09:04:56.983Z,1.27
2023-03-19T09:08:00.184Z,1.00
2023-03-19T09:11:03.153Z,1.25
2023-03-19T09:14:05.897Z,1.08
2023-03-19T09:17:09.337Z,0.90
2023-03-19T09:20:14.156Z,1.10
2023-03-19T09:23:16.874Z,0.57
2023-03-19T09:26:19.571Z,0.80
2023-03-19T09:29:22.583Z,1.08
2023-03-19T09:32:25.878Z,1.10
2023-03-19T09:35:31.460Z,1.20
2023-03-19T09:38:34.652Z,0.77
2023-03-19T09:41:47.671Z,1.20
2023-03-19T09:44:53.628Z,0.95
2023-03-19T09:48:04.300Z,1.00
2023-03-19T09:51:16.093Z,1.25
2023-03-19T09:54:28.767Z,1.15
2023-03-19T09:57:33.231Z,0.77
2023-03-19T10:00:38.204Z,0.90
2023-03-19T10:03:47.356Z,1.00
2023-03-19T10:07:00.543Z,1.00
2023-03-19T10:10:33.682Z,1.08
2023-03-19T10:13:54.508Z,0.82
2023-03-19T10:17:01.955Z,1.05
2023-03-19T10:20:10.545Z,0.93
2023-03-19T10:23:42.789Z,1.17
2023-03-19T10:26:47.318Z,1.02
2023-03-19T10:29:50.242Z,0.80
2023-03-19T10:32:58.947Z,1.02
2023-03-19T10:36:06.989Z,0.90
2023-03-19T10:39:14.428Z,1.10
2023-03-19T10:42:41.227Z,0.80
2023-03-19T10:45:44.349Z,1.00
2023-03-19T10:48:47.657Z,0.93
2023-03-19T10:51:51.047Z,0.90
2023-03-19T10:55:02.208Z,1.02
2023-03-19T10:58:07.348Z,1.25
2023-03-19T11:01:13.583Z,0.90
2023-03-19T11:04:19.803Z,0.75
2023-03-19T11:07:34.673Z,0.98
2023-03-19T11:10:48.048Z,0.70
2023-03-19T11:13:50.968Z,1.05
2023-03-19T11:16:58.411Z,1.05
2023-03-19T11:20:19.316Z,1.10
2023-03-19T11:23:22.248Z,0.90
2023-03-19T11:26:28.651Z,0.88
2023-03-19T11:29:32.183Z,1.17
2023-03-19T11:33:04.942Z,1.05
2023-03-19T11:36:13.996Z,0.93
2023-03-19T11:39:28.111Z,1.10
2023-03-19T11:42:47.154Z,1.00
2023-03-19T11:46:01.120Z,1.50
2023-03-19T11:49:22.178Z,1.20
2023-03-19T11:52:32.005Z,1.20
2023-03-19T11:55:42.403Z,1.35
2023-03-19T11:59:07.905Z,1.13
2023-03-19T12:02:37.919Z,1.02
2023-03-19T12:05:50.839Z,1.23
2023-03-19T12:09:01.064Z,1.08
2023-03-19T12:12:15.338Z,1.00
2023-03-19T12:15:25.933Z,1.00
2023-03-19T12:18:47.103Z,1.10
2023-03-19T12:22:00.178Z,0.98
2023-03-19T12:25:24.099Z,1.65
2023-03-19T12:28:30.546Z,1.08
2023-03-19T12:31:52.201Z,1.13
2023-03-19T12:34:58.567Z,1.00
2023-03-19T12:38:08.070Z,1.20
2023-03-19T12:41:12.972Z,1.10
2023-03-19T12:44:21.917Z,1.10
2023-03-19T12:47:31.302Z,1.25
2023-03-19T12:50:39.629Z,1.00
2023-03-19T12:53:48.540Z,1.02
2023-03-19T12:56:59.636Z,1.00
2023-03-19T13:00:07.848Z,0.90
2023-03-19T13:03:19.334Z,1.00
2023-03-19T13:06:28.158Z,1.00
2023-03-19T13:09:35.326Z,0.95
2023-03-19T13:12:39.684Z,1.10
2023-03-19T13:15:48.345Z,1.10
2023-03-19T13:19:03.589Z,0.80
2023-03-19T13:22:11.962Z,1.40
2023-03-19T13:25:21.080Z,0.98
2023-03-19T13:28:29.768Z,1.20
2023-03-19T13:31:36.878Z,0.90
2023-03-19T13:34:41.357Z,1.30
2023-03-19T13:37:45.298Z,1.10
2023-03-19T13:40:50.416Z,0.90
2023-03-19T13:43:54.317Z,0.88
2023-03-19T13:46:57.733Z,0.90
2023-03-19T13:50:25.112Z,1.00
2023-03-19T13:53:40.883Z,1.00
2023-03-19T13:57:31.377Z,0.80
2023-03-19T14:00:58.329Z,1.00
2023-03-19T14:04:04.084Z,1.40
2023-03-19T14:07:20.328Z,1.10
2023-03-19T14:10:29.661Z,1.48
2023-03-19T14:13:36.221Z,1.23
2023-03-19T14:16:43.565Z,1.50
2023-03-19T14:19:46.894Z,1.38
2023-03-19T14:23:12.984Z,1.50
2023-03-19T14:26:19.528Z,1.30
2023-03-19T14:29:26.432Z,1.50
2023-03-19T14:32:35.446Z,1.63
2023-03-19T14:35:45.404Z,1.20
2023-03-19T14:38:53.111Z,1.17
2023-03-19T14:42:01.821Z,1.40
2023-03-19T14:45:44.171Z,1.23
2023-03-19T14:49:17.319Z,1.13
2023-03-19T14:52:24.013Z,1.08
2023-03-19T14:55:37.258Z,0.98
2023-03-19T14:58:49.923Z,1.08
2023-03-19T15:01:54.596Z,0.90
2023-03-19T15:05:00.510Z,0.90
2023-03-19T15:08:06.210Z,0.85
2023-03-19T15:11:25.631Z,0.82
2023-03-19T15:14:49.087Z,0.77
2023-03-19T15:18:03.855Z,0.80
2023-03-19T15:21:07.914Z,0.93
2023-03-19T15:24:17.379Z,0.70
2023-03-19T15:27:22.973Z,1.10
2023-03-19T15:30:29.272Z,0.98
2023-03-19T15:33:40.872Z,1.00
2023-03-19T15:36:45.422Z,0.90
2023-03-19T15:39:52.735Z,1.05
2023-03-19T15:42:59.507Z,0.95
2023-03-19T15:46:02.860Z,1.00
2023-03-19T15:49:11.204Z,0.75
2023-03-19T15:52:19.393Z,0.70
2023-03-19T15:55:22.409Z,1.00
2023-03-19T15:58:30.186Z,0.80
2023-03-19T16:01:34.982Z,1.00
2023-03-19T16:05:01.913Z,1.20
2023-03-19T16:08:02.364Z,0.95
2023-03-19T16:11:17.237Z,1.33
2023-03-19T16:14:27.430Z,2.05
2023-03-19T16:17:36.262Z,1.30
2023-03-19T16:20:45.445Z,1.40
2023-03-19T16:23:53.957Z,1.20
2023-03-19T16:26:58.648Z,1.27
2023-03-19T16:30:03.562Z,1.25
2023-03-19T16:33:07.649Z,1.10
2023-03-19T16:36:14.270Z,0.90
2023-03-19T16:39:39.087Z,1.23
2023-03-19T16:42:43.206Z,0.80
2023-03-19T16:46:33.222Z,0.95
2023-03-19T16:50:01.410Z,1.02
2023-03-19T17:02:25.086Z,1.23
2023-03-19T17:05:29.625Z,0.90
2023-03-19T17:18:00.633Z,0.55
2023-03-19T17:26:42.918Z,0.73
2023-03-19T17:29:46.125Z,0.70
2023-03-19T17:32:50.981Z,6.70
2023-03-19T17:35:56.805Z,2.67
2023-03-19T17:38:59.523Z,1.42
2023-03-19T17:42:02.186Z,2.90
2023-03-19T17:45:05.324Z,2.80
2023-03-19T17:48:15.701Z,1.63
2023-03-19T17:51:20.536Z,2.22
2023-03-19T17:54:25.783Z,1.63
2023-03-19T17:57:28.376Z,1.60
2023-03-19T18:00:31.212Z,1.60
2023-03-19T18:03:36.217Z,1.60
2023-03-19T18:06:43.022Z,1.42
2023-03-19T18:09:45.787Z,1.25
2023-03-19T18:12:49.311Z,1.60
2023-03-19T18:15:51.993Z,1.48
2023-03-19T18:18:55.201Z,1.55
2023-03-19T18:21:59.398Z,1.40
2023-03-19T18:25:02.083Z,1.08
2023-03-19T18:28:05.260Z,1.20
2023-03-19T18:31:15.532Z,1.40
2023-03-19T18:34:18.744Z,1.17
2023-03-19T18:37:23.163Z,1.30
2023-03-19T18:40:27.985Z,0.90
2023-03-19T18:43:30.777Z,1.00
2023-03-19T18:46:34.962Z,0.82
2023-03-19T18:49:37.623Z,1.00
2023-03-19T18:52:41.895Z,0.90
2023-03-19T18:55:45.183Z,1.00
2023-03-19T18:58:48.668Z,1.30
2023-03-19T19:01:52.233Z,1.15
2023-03-19T19:04:54.916Z,1.20
2023-03-19T19:08:00.937Z,1.40
2023-03-19T19:11:05.566Z,1.10
2023-03-19T19:14:16.547Z,1.10
2023-03-19T19:17:24.050Z,1.27
2023-03-19T19:20:28.380Z,1.40
2023-03-19T19:23:32.540Z,1.70
2023-03-19T19:26:37.090Z,1.20
2023-03-19T19:29:39.743Z,1.23
2023-03-19T19:32:42.531Z,1.50
2023-03-19T19:35:45.524Z,1.30
2023-03-19T19:38:51.884Z,1.20
2023-03-19T19:41:56.062Z,0.90
2023-03-19T19:44:59.319Z,0.90
2023-03-19T19:48:01.933Z,0.95
2023-03-19T19:51:04.773Z,0.80
2023-03-19T19:54:08.763Z,0.90
2023-03-19T19:57:19.244Z,1.17
2023-03-19T20:00:23.679Z,1.00
2023-03-19T20:03:28.282Z,1.10
2023-03-19T20:06:30.944Z,0.90
2023-03-19T20:09:34.973Z,0.83
2023-03-19T20:12:37.651Z,1.00
2023-03-19T20:15:40.311Z,1.10
2023-03-19T20:18:43.558Z,1.43
2023-03-19T20:21:46.516Z,1.73
2023-03-19T20:24:51.597Z,1.20
2023-03-19T20:27:58.151Z,1.13
2023-03-19T20:31:01.526Z,1.20
2023-03-19T20:34:04.167Z,1.10
2023-03-19T20:37:06.839Z,1.20
2023-03-19T20:40:12.428Z,1.20
2023-03-19T20:43:27.952Z,1.00
2023-03-19T20:46:31.194Z,1.20
2023-03-19T20:49:33.791Z,1.45
2023-03-19T20:52:36.441Z,1.15
2023-03-19T20:55:42.527Z,1.13
2023-03-19T20:58:46.438Z,1.10
2023-03-19T21:01:49.142Z,1.50
2023-03-19T21:04:51.892Z,2.13
2023-03-19T21:07:55.516Z,3.15
2023-03-19T21:10:59.842Z,2.80
2023-03-19T21:14:02.671Z,2.30
2023-03-19T21:17:05.405Z,3.50
2023-03-19T21:20:08.927Z,3.90
2023-03-19T21:23:19.674Z,3.60
2023-03-19T21:26:27.407Z,2.90
2023-03-19T21:29:34.259Z,2.10
2023-03-19T21:32:37.031Z,2.35
2023-03-19T21:35:39.907Z,2.30
2023-03-19T21:38:43.603Z,2.40
2023-03-19T21:41:48.324Z,2.50
2023-03-19T21:44:57.820Z,2.47
2023-03-19T21:48:21.012Z,2.73
2023-03-19T21:51:25.074Z,2.70
2023-03-19T21:54:27.857Z,2.40
2023-03-19T21:57:32.519Z,2.80
2023-03-19T22:00:36.088Z,3.10
2023-03-19T22:03:38.879Z,2.63
2023-03-19T22:06:43.031Z,3.00
2023-03-19T22:09:46.366Z,2.72
2023-03-19T22:12:51.165Z,2.88
2023-03-19T22:15:55.625Z,2.67
2023-03-19T22:18:58.658Z,2.60
2023-03-19T22:22:01.758Z,2.30
2023-03-19T22:25:04.689Z,2.67
2023-03-19T22:28:16.658Z,2.13
2023-03-19T22:31:19.529Z,2.87
2023-03-19T22:34:24.513Z,3.35
2023-03-19T22:37:28.728Z,3.10
2023-03-19T22:40:31.518Z,3.00
2023-03-19T22:43:37.329Z,3.50
2023-03-19T22:46:40.226Z,3.13
2023-03-19T22:49:44.984Z,3.23
2023-03-19T22:52:47.794Z,3.42
2023-03-19T22:55:50.578Z,2.90
2023-03-19T22:58:54.733Z,2.80
2023-03-19T23:01:58.088Z,2.97
2023-03-19T23:05:02.333Z,2.60
2023-03-19T23:08:06.751Z,2.47
2023-03-19T23:11:09.640Z,1.57
2023-03-19T23:14:26.361Z,0.93
2023-03-19T23:17:31.490Z,0.87
2023-03-19T23:20:34.408Z,0.53
2023-03-19T23:23:37.573Z,0.50
2023-03-19T23:26:44.323Z,0.70
2023-03-19T23:29:48.395Z,0.30
2023-03-19T23:32:51.410Z,0.70
2023-03-19T23:35:55.048Z,0.60
2023-03-19T23:38:59.294Z,0.60
2023-03-19T23:42:02.163Z,0.40
2023-03-19T23:45:07.863Z,0.43
2023-03-19T23:48:15.286Z,0.40
2023-03-19T23:51:18.268Z,0.50
2023-03-19T23:54:29.966Z,0.40
2023-03-19T23:57:33.209Z,0.70
